EDT,Max TemperatureF,Mean TemperatureF,Min TemperatureF,Max Dew PointF,MeanDew PointF,Min DewpointF,Max Humidity, Mean Humidity, Min Humidity, Max Sea Level PressureIn, Mean Sea Level PressureIn, Min Sea Level PressureIn, Max VisibilityMiles, Mean VisibilityMiles, Min VisibilityMiles, Max Wind SpeedMPH, Mean Wind SpeedMPH, Max Gust SpeedMPH,PrecipitationIn, CloudCover, Events, WindDirDegrees
2013-4-1,73,62,48,61,50,32,100,73,22,29.97,29.89,29.86,10,8,2,12,4,18,0.29,3,Rain,275
2013-4-2,66,52,37,46,38,32,100,68,28,30.17,30.08,29.97,10,10,5,9,2,,0.00,1,,3
2013-4-3,60,54,48,41,25,14,66,35,23,30.28,30.20,30.10,10,10,10,18,7,24,0.00,3,,36
2013-4-4,48,44,39,43,38,27,100,84,46,30.26,30.14,29.96,10,6,2,13,5,21,0.76,4,Rain,34
2013-4-5,64,50,35,54,43,36,100,88,45,30.05,29.97,29.91,10,10,5,12,5,17,0.00,6,,353
2013-4-6,71,52,32,46,37,32,100,65,25,30.23,30.16,30.05,10,10,5,7,1,,0.00,0,,73
2013-4-7,73,55,37,55,46,36,100,71,38,30.28,30.19,30.11,10,10,4,9,2,16,0.00,1,,193
2013-4-8,78,63,48,59,53,48,100,75,34,30.20,30.14,30.08,10,9,1,10,3,,0.00,1,,200
2013-4-9,82,66,50,63,57,50,100,77,37,30.22,30.16,30.11,10,9,2,8,2,16,0.00,0,,195
2013-4-10,84,70,55,64,59,55,100,72,37,30.15,30.08,29.99,10,9,1,9,2,17,0.00,0,,192
2013-4-11,82,70,59,72,64,57,100,84,51,30.01,29.92,29.79,10,9,4,10,3,,0.00,2,Rain,171
2013-4-12,80,70,59,70,58,36,100,72,22,29.84,29.74,29.68,10,9,1,20,7,28,0.00,3,Rain-Thunderstorm,207
2013-4-13,75,58,41,50,43,32,100,64,21,30.03,29.95,29.85,10,10,9,8,1,,0.00,0,,291
2013-4-14,75,60,44,59,49,41,100,71,29,30.09,30.05,29.95,10,10,8,9,2,,0.00,0,Rain,139
2013-4-15,71,62,53,66,61,54,100,91,69,30.19,30.07,29.98,10,9,0,5,0,,0.00,6,Fog-Rain,76
2013-4-16,80,68,57,64,61,57,100,84,45,30.31,30.23,30.19,10,9,1,6,0,,0.00,3,,69
2013-4-17,84,68,53,68,62,54,100,83,42,30.27,30.19,30.11,10,8,0,8,1,,0.00,1,Fog,237
2013-4-18,80,68,57,66,62,57,100,80,51,30.18,30.11,30.01,10,10,5,9,2,16,0.00,2,,155
2013-4-19,80,66,53,72,65,50,100,91,61,30.02,29.89,29.79,10,10,1,15,5,23,0.00,4,Rain,189
2013-4-20,64,52,41,54,41,28,100,69,26,30.27,30.11,29.92,10,10,10,12,5,,0.00,1,Rain,331
2013-4-21,66,50,35,46,41,36,100,69,35,30.43,30.37,30.27,10,9,4,13,3,20,0.00,1,,58
2013-4-22,64,52,41,43,35,27,93,58,26,30.40,30.32,30.22,10,10,10,14,6,22,0.00,0,,42
2013-4-23,69,55,41,57,49,41,100,81,49,30.27,30.20,30.12,10,10,6,8,3,,0.00,4,,35
2013-4-24,75,60,46,59,55,46,100,79,50,30.17,30.11,30.04,10,8,2,10,3,22,0.00,3,,208
2013-4-25,73,60,46,63,49,37,100,70,27,30.27,30.19,30.07,10,10,10,14,3,18,0.00,2,Thunderstorm,10
2013-4-26,73,56,39,55,43,32,100,67,26,30.43,30.35,30.27,10,10,9,10,2,16,0.00,0,,61
2013-4-27,66,58,51,59,54,48,100,90,52,30.38,30.33,30.26,10,8,2,6,1,,0.00,2,Rain,298
2013-4-28,64,58,53,64,58,54,100,100,100,30.26,30.16,30.06,10,6,1,12,2,,0.00,6,Rain-Thunderstorm,72
2013-4-29,73,65,57,68,61,57,100,95,69,30.07,30.02,29.96,10,6,2,5,0,,0.00,4,Rain,260
2013-4-30,75,67,59,64,62,59,100,92,57,30.17,30.07,29.99,10,7,0,10,2,,0.00,5,Fog,52